Time;durP1;ratioP1;P1;durP2;ratioP2;P2;SDS_P1;SDS_P2;PMS_P1;PMS_P2;Temp;Humidity;BMP_temperature;BMP_pressure;BME280_temperature;BME280_humidity;BME280_pressure;Samples;Min_cycle;Max_cycle;Signal;HPM_P1;HPM_P2
2022/09/26 03:00:42;;;;;;;0.80;0.80;;;12.90;84.10;;;;;;6051205;23;20469;31
2022/09/26 03:03:19;;;;;;;0.80;0.80;;;12.90;84.10;;;;;;4918090;29;20496;-72
2022/09/26 03:05:50;;;;;;;0.90;0.90;;;13.00;84.10;;;;;;4919046;29;20923;-72
2022/09/26 03:08:21;;;;;;;0.80;0.80;;;13.00;84.20;;;;;;4918995;29;20881;-72
2022/09/26 03:10:49;;;;;;;0.80;0.80;;;13.00;84.20;;;;;;4919735;29;20477;-72
2022/09/26 03:13:18;;;;;;;0.80;0.80;;;13.00;84.20;;;;;;4919735;29;20461;-72
2022/09/26 03:15:50;;;;;;;0.80;0.80;;;13.00;84.10;;;;;;4920622;29;20481;-72
2022/09/26 03:18:20;;;;;;;0.93;0.93;;;13.00;84.20;;;;;;4919142;29;20437;-73
2022/09/26 03:20:47;;;;;;;0.87;0.87;;;12.90;84.30;;;;;;4919793;29;20468;-73
2022/09/26 03:23:14;;;;;;;0.90;0.90;;;12.90;84.40;;;;;;4918967;29;20485;-72
2022/09/26 03:25:41;;;;;;;0.77;0.77;;;12.90;84.40;;;;;;4918622;29;20794;-73
2022/09/26 03:28:09;;;;;;;0.80;0.80;;;12.90;84.50;;;;;;4918670;29;20512;-72
2022/09/26 03:30:36;;;;;;;0.70;0.70;;;12.90;84.40;;;;;;4918801;29;20525;-73
2022/09/26 03:33:04;;;;;;;0.80;0.70;;;12.90;84.40;;;;;;4918820;29;20453;-73
2022/09/26 03:35:30;;;;;;;1.03;0.93;;;12.90;84.10;;;;;;4918770;29;20453;-73
2022/09/26 03:37:57;;;;;;;0.70;0.70;;;12.90;83.90;;;;;;4918776;29;20456;-73
2022/09/26 03:40:24;;;;;;;1.17;1.07;;;13.00;83.70;;;;;;4918265;29;20880;-73
2022/09/26 03:42:50;;;;;;;0.80;0.80;;;12.90;83.90;;;;;;4918596;29;20818;-73
2022/09/26 03:45:19;;;;;;;0.80;0.80;;;12.90;83.70;;;;;;4918599;29;20453;-73
2022/09/26 03:47:46;;;;;;;0.90;0.90;;;12.90;83.90;;;;;;4918537;29;20460;-73
2022/09/26 03:50:14;;;;;;;0.80;0.80;;;12.90;83.90;;;;;;4918214;29;20457;-73
2022/09/26 03:52:41;;;;;;;0.73;0.73;;;12.80;83.90;;;;;;4918385;29;20528;-72
2022/09/26 03:55:07;;;;;;;0.90;0.90;;;12.80;84.10;;;;;;4918861;29;20489;-72
2022/09/26 03:57:34;;;;;;;0.77;0.77;;;12.80;84.10;;;;;;4918395;29;20536;-73
2022/09/26 04:00:02;;;;;;;0.80;0.80;;;12.80;84.20;;;;;;4918003;29;20456;-72
2022/09/26 04:02:29;;;;;;;0.80;0.80;;;12.70;84.10;;;;;;4917935;29;20485;-72
2022/09/26 04:04:55;;;;;;;1.07;1.07;;;12.70;84.30;;;;;;4918169;29;20537;-72
2022/09/26 04:07:24;;;;;;;0.80;0.80;;;12.80;84.30;;;;;;4918170;29;20508;-72
2022/09/26 04:09:51;;;;;;;1.03;0.93;;;12.60;84.50;;;;;;4918142;29;20568;-73
2022/09/26 04:12:19;;;;;;;0.80;0.80;;;12.50;84.60;;;;;;4918038;29;20473;-72
2022/09/26 04:14:46;;;;;;;0.90;0.80;;;12.50;84.90;;;;;;4917718;29;21016;-73
2022/09/26 04:17:13;;;;;;;1.00;0.90;;;12.50;84.60;;;;;;4918036;29;20885;-73
2022/09/26 04:19:40;;;;;;;0.63;0.63;;;12.60;84.50;;;;;;4917682;29;21004;-73
2022/09/26 04:22:07;;;;;;;0.70;0.70;;;12.60;84.50;;;;;;4917871;29;20532;-73
2022/09/26 04:24:35;;;;;;;0.70;0.70;;;12.60;84.30;;;;;;4918066;29;20485;-73
2022/09/26 04:27:02;;;;;;;0.80;0.80;;;12.70;84.00;;;;;;4917559;29;20953;-73
2022/09/26 04:29:29;;;;;;;0.70;0.70;;;12.70;83.80;;;;;;4917861;29;20517;-73
2022/09/26 04:31:56;;;;;;;0.70;0.70;;;12.70;83.80;;;;;;4917377;29;20989;-73
2022/09/26 04:34:23;;;;;;;0.73;0.73;;;12.70;83.50;;;;;;4917767;29;20790;-73
2022/09/26 04:36:50;;;;;;;0.80;0.60;;;12.70;83.30;;;;;;4917704;29;20460;-73
2022/09/26 04:39:16;;;;;;;0.80;0.80;;;12.80;83.30;;;;;;4917645;29;20491;-72
2022/09/26 04:41:44;;;;;;;0.80;0.80;;;12.70;83.20;;;;;;4917533;29;20536;-72
2022/09/26 04:44:11;;;;;;;0.70;0.70;;;12.80;83.00;;;;;;4917644;29;20488;-73
2022/09/26 04:46:38;;;;;;;0.70;0.70;;;12.80;83.00;;;;;;4917778;29;20505;-73
2022/09/26 04:49:05;;;;;;;0.63;0.63;;;12.60;82.70;;;;;;4917211;29;21016;-73
2022/09/26 04:51:32;;;;;;;0.90;0.73;;;12.50;83.20;;;;;;4917457;29;20483;-73
2022/09/26 04:53:59;;;;;;;0.70;0.70;;;12.50;83.40;;;;;;4917504;29;20794;-72
2022/09/26 04:56:28;;;;;;;1.17;0.70;;;12.50;83.60;;;;;;4917733;29;20456;-73
2022/09/26 04:58:58;;;;;;;0.70;0.70;;;12.40;83.60;;;;;;4917443;29;20508;-72
2022/09/26 05:01:25;;;;;;;0.73;0.73;;;12.40;83.60;;;;;;4916867;29;20548;-72
2022/09/26 05:03:52;;;;;;;0.90;0.90;;;12.40;83.50;;;;;;4917010;29;20492;-72
2022/09/26 05:06:19;;;;;;;0.70;0.70;;;12.30;83.80;;;;;;4917368;29;20508;-72
2022/09/26 05:08:48;;;;;;;0.90;0.70;;;12.20;84.50;;;;;;4917534;29;20552;-72
2022/09/26 05:11:16;;;;;;;0.70;0.70;;;12.10;84.50;;;;;;4917232;29;20496;-72
2022/09/26 05:13:43;;;;;;;0.80;0.80;;;12.00;85.00;;;;;;4917244;29;20516;-72
2022/09/26 05:16:13;;;;;;;0.70;0.70;;;11.80;85.20;;;;;;4917456;29;20453;-72
2022/09/26 05:18:40;;;;;;;0.70;0.70;;;11.60;86.00;;;;;;4916914;29;20457;-73
2022/09/26 05:21:08;;;;;;;0.80;0.80;;;11.50;86.10;;;;;;4917120;29;20473;-72
2022/09/26 05:26:24;;;;;;;0.60;0.60;;;11.40;87.10;;;;;;4917253;29;20984;-73
2022/09/26 05:28:53;;;;;;;0.80;0.80;;;11.40;87.20;;;;;;4917150;29;20444;-73
2022/09/26 05:31:24;;;;;;;0.80;0.80;;;11.50;87.30;;;;;;4916952;29;20477;-72
2022/09/26 05:33:51;;;;;;;0.77;0.77;;;11.60;86.90;;;;;;4917072;29;20437;-72
2022/09/26 05:36:18;;;;;;;0.70;0.70;;;11.60;86.90;;;;;;4917074;29;20548;-72
2022/09/26 05:38:45;;;;;;;0.87;0.80;;;11.70;86.40;;;;;;4917002;29;20812;-73
2022/09/26 05:41:12;;;;;;;0.70;0.70;;;11.80;86.30;;;;;;4916930;29;20469;-73
2022/09/26 05:43:38;;;;;;;0.80;0.80;;;11.80;85.90;;;;;;4916849;29;20535;-72
2022/09/26 05:46:08;;;;;;;0.70;0.70;;;11.80;85.60;;;;;;4916934;29;20449;-72
2022/09/26 05:48:37;;;;;;;0.73;0.70;;;11.60;85.70;;;;;;4916933;29;20460;-73
2022/09/26 05:51:04;;;;;;;0.70;0.70;;;11.50;86.20;;;;;;4916832;29;20568;-72
2022/09/26 05:53:32;;;;;;;0.67;0.67;;;11.40;86.50;;;;;;4916879;29;20453;-73
2022/09/26 05:55:58;;;;;;;1.00;0.70;;;11.30;87.20;;;;;;4916857;29;20505;-73
2022/09/26 05:58:30;;;;;;;0.80;0.80;;;11.30;87.30;;;;;;4916766;29;20452;-72
2022/09/26 06:01:01;;;;;;;1.17;0.80;;;11.40;87.80;;;;;;4916817;29;20529;-72
2022/09/26 06:03:33;;;;;;;0.80;0.80;;;11.40;87.70;;;;;;4916773;29;20493;-73
2022/09/26 06:06:04;;;;;;;0.70;0.70;;;11.40;87.60;;;;;;4916830;29;20444;-73
2022/09/26 06:08:31;;;;;;;0.80;0.80;;;11.20;88.30;;;;;;4916483;29;20536;-73
2022/09/26 06:11:02;;;;;;;0.80;0.80;;;11.00;89.10;;;;;;4916316;29;20840;-72
2022/09/26 06:13:29;;;;;;;0.90;0.90;;;10.90;89.70;;;;;;4917784;29;20459;-72
2022/09/26 06:15:56;;;;;;;0.93;0.93;;;11.00;90.30;;;;;;4920242;29;20452;-72
2022/09/26 06:18:23;;;;;;;0.83;0.80;;;11.00;89.40;;;;;;4920223;29;20476;-73
2022/09/26 06:20:50;;;;;;;1.13;0.80;;;11.00;90.40;;;;;;4920070;29;20529;-72
2022/09/26 06:23:18;;;;;;;1.00;0.90;;;11.30;90.00;;;;;;4920069;29;20460;-72
2022/09/26 06:25:44;;;;;;;0.70;0.70;;;11.40;89.70;;;;;;4920047;29;20541;-73
2022/09/26 06:28:11;;;;;;;0.80;0.80;;;11.50;88.40;;;;;;4920013;29;20449;-72
2022/09/26 06:30:39;;;;;;;0.80;0.70;;;11.40;88.90;;;;;;4919905;29;20452;-72
2022/09/26 06:33:06;;;;;;;0.80;0.80;;;11.50;89.00;;;;;;4919952;29;20500;-72
2022/09/26 06:35:33;;;;;;;0.83;0.80;;;12.30;88.50;;;;;;4920848;29;20457;-73
2022/09/26 06:37:59;;;;;;;1.00;0.80;;;13.00;84.70;;;;;;4919806;29;20504;-73
2022/09/26 06:40:27;;;;;;;0.87;0.87;;;13.00;82.50;;;;;;4919641;29;20452;-72
2022/09/26 06:42:55;;;;;;;0.70;0.70;;;12.70;83.20;;;;;;4919700;29;20449;-72
2022/09/26 06:45:21;;;;;;;0.70;0.70;;;12.60;84.30;;;;;;4919235;29;20936;-72
2022/09/26 06:47:48;;;;;;;0.90;0.90;;;12.20;84.90;;;;;;4919676;29;20452;-73
2022/09/26 06:50:15;;;;;;;0.70;0.70;;;12.00;86.30;;;;;;4919920;29;20457;-73
2022/09/26 06:52:42;;;;;;;0.87;0.87;;;11.90;86.30;;;;;;4920101;29;20839;-73
2022/09/26 06:55:10;;;;;;;0.70;0.70;;;11.70;87.10;;;;;;4919423;29;20457;-73
2022/09/26 06:57:40;;;;;;;0.70;0.70;;;11.80;87.90;;;;;;4919397;29;20457;-73
2022/09/26 07:00:08;;;;;;;0.70;0.70;;;12.00;87.60;;;;;;4919446;29;20452;-73
2022/09/26 07:02:35;;;;;;;0.70;0.70;;;12.10;87.00;;;;;;4919030;29;20571;-73
2022/09/26 07:05:02;;;;;;;0.83;0.83;;;11.90;87.40;;;;;;4919308;29;20481;-73
2022/09/26 07:07:29;;;;;;;0.70;0.70;;;12.60;89.00;;;;;;4919176;29;20500;-73
2022/09/26 07:09:56;;;;;;;0.63;0.63;;;13.20;84.20;;;;;;4919286;29;20531;-73
2022/09/26 07:12:24;;;;;;;0.70;0.70;;;13.80;83.00;;;;;;4919420;29;20971;-73
2022/09/26 07:14:52;;;;;;;0.70;0.70;;;14.00;80.60;;;;;;4919280;29;20457;-73
2022/09/26 07:17:19;;;;;;;0.70;0.70;;;13.90;81.50;;;;;;4919208;29;20448;-73
2022/09/26 07:19:50;;;;;;;0.80;0.80;;;14.00;81.80;;;;;;4919029;29;20453;-73
2022/09/26 07:22:17;;;;;;;0.87;0.87;;;14.10;80.80;;;;;;4919041;29;20476;-73
2022/09/26 07:24:45;;;;;;;0.80;0.80;;;14.00;81.00;;;;;;4918357;29;20485;-73
2022/09/26 07:27:11;;;;;;;0.70;0.70;;;13.90;81.90;;;;;;4918658;29;21012;-73
2022/09/26 07:29:38;;;;;;;0.80;0.80;;;14.00;82.30;;;;;;4918906;29;20508;-73
2022/09/26 07:32:06;;;;;;;0.70;0.70;;;13.90;81.80;;;;;;4918511;29;20476;-73
2022/09/26 07:34:33;;;;;;;0.80;0.80;;;13.80;82.30;;;;;;4918484;29;20956;-73
2022/09/26 07:36:59;;;;;;;0.80;0.80;;;13.90;82.70;;;;;;4918759;29;20454;-73
2022/09/26 07:39:26;;;;;;;0.80;0.70;;;14.00;82.50;;;;;;4918776;29;20488;-73
2022/09/26 07:41:53;;;;;;;0.80;0.80;;;14.00;82.50;;;;;;4918583;29;20844;-73
2022/09/26 07:44:19;;;;;;;0.60;0.60;;;14.10;82.20;;;;;;4918243;29;21062;-73
2022/09/26 07:52:19;;;;;;;0.70;0.70;;;13.40;83.70;;;;;;4918521;29;20472;-73
2022/09/26 07:54:46;;;;;;;0.80;0.80;;;13.30;84.30;;;;;;4918409;29;20453;-73
2022/09/26 07:57:13;;;;;;;0.60;0.60;;;13.40;85.20;;;;;;4918409;29;20457;-73
2022/09/26 07:59:40;;;;;;;0.60;0.60;;;13.60;85.40;;;;;;4918335;29;20465;-72
2022/09/26 08:02:19;;;;;;;0.60;0.60;;;13.70;84.40;;;;;;4918203;29;20520;-73
2022/09/26 08:04:46;;;;;;;0.90;0.80;;;13.70;83.80;;;;;;4918127;29;20850;-73
2022/09/26 08:07:13;;;;;;;0.67;0.67;;;13.70;83.70;;;;;;4918418;29;20504;-73
2022/09/26 08:09:40;;;;;;;0.70;0.70;;;13.50;83.90;;;;;;4917800;29;20844;-72
2022/09/26 08:12:07;;;;;;;0.70;0.70;;;13.60;84.00;;;;;;4918033;29;20477;-72
2022/09/26 08:14:33;;;;;;;0.70;0.70;;;13.40;84.40;;;;;;4918056;29;20453;-73
2022/09/26 08:17:00;;;;;;;0.70;0.70;;;13.40;84.90;;;;;;4917746;29;20897;-73
2022/09/26 08:19:27;;;;;;;1.03;0.80;;;13.20;85.50;;;;;;4917769;29;20449;-73
2022/09/26 08:21:55;;;;;;;0.80;0.80;;;13.30;85.60;;;;;;4918857;29;20845;-73
2022/09/26 08:24:22;;;;;;;0.80;0.80;;;13.20;86.40;;;;;;4918506;29;20457;-73
2022/09/26 08:26:48;;;;;;;0.70;0.70;;;13.50;86.80;;;;;;4919334;29;20479;-72
2022/09/26 08:29:15;;;;;;;0.60;0.60;;;13.60;84.90;;;;;;4917867;29;20453;-72
2022/09/26 08:31:41;;;;;;;0.77;0.77;;;13.40;85.10;;;;;;4917721;29;20469;-72
2022/09/26 08:34:08;;;;;;;0.80;0.70;;;13.50;84.70;;;;;;4917837;29;20500;-73
2022/09/26 08:36:35;;;;;;;0.80;0.80;;;13.40;85.70;;;;;;4917030;29;20453;-73
2022/09/26 08:39:04;;;;;;;0.73;0.73;;;13.60;86.10;;;;;;4917494;29;20457;-73
2022/09/26 08:41:48;;;;;;;0.80;0.80;;;13.70;84.30;;;;;;4917610;29;20556;-73
2022/09/26 08:44:31;;;;;;;0.60;0.60;;;14.00;85.00;;;;;;4917517;29;20963;-73
2022/09/26 08:47:01;;;;;;;0.70;0.70;;;14.10;85.00;;;;;;4917533;29;20977;-73
2022/09/26 08:49:54;;;;;;;0.80;0.80;;;14.30;83.20;;;;;;4917531;29;20553;-73
2022/09/26 08:52:29;;;;;;;0.90;0.73;;;14.70;83.50;;;;;;4917460;29;20477;-73
2022/09/26 08:55:01;;;;;;;0.90;0.70;;;14.70;81.00;;;;;;4917450;29;20429;-73
2022/09/26 08:57:36;;;;;;;0.73;0.73;;;14.50;82.30;;;;;;4917377;29;20441;-73
2022/09/26 09:00:14;;;;;;;0.70;0.70;;;14.70;80.40;;;;;;4917379;29;20437;-72
2022/09/26 09:02:49;;;;;;;1.07;0.70;;;14.90;80.00;;;;;;4917308;29;20488;-73
2022/09/26 09:05:19;;;;;;;0.67;0.67;;;15.00;77.40;;;;;;4917709;29;20854;-73
2022/09/26 09:07:49;;;;;;;0.70;0.70;;;15.30;78.50;;;;;;4918193;29;20471;-73
2022/09/26 09:10:22;;;;;;;0.80;0.80;;;15.50;77.90;;;;;;4918992;29;20459;-73
2022/09/26 09:12:58;;;;;;;0.60;0.60;;;15.50;77.30;;;;;;4918292;29;20426;-74
2022/09/26 09:15:38;;;;;;;0.60;0.60;;;15.40;77.10;;;;;;4919740;29;20460;-74
2022/09/26 09:18:16;;;;;;;0.70;0.70;;;15.50;79.30;;;;;;4918681;29;20469;-74
2022/09/26 09:20:56;;;;;;;0.80;0.70;;;15.80;77.30;;;;;;4918201;29;20484;-74
2022/09/26 09:23:50;;;;;;;1.43;0.90;;;16.00;75.50;;;;;;4917627;29;20474;-73
2022/09/26 09:26:26;;;;;;;1.33;0.70;;;16.20;72.90;;;;;;4916768;29;20469;-73
2022/09/26 09:29:19;;;;;;;0.67;0.67;;;16.10;72.50;;;;;;4916844;29;20973;-71
2022/09/26 09:31:46;;;;;;;0.70;0.70;;;15.90;73.60;;;;;;4916788;29;20872;-73
2022/09/26 09:34:20;;;;;;;0.80;0.80;;;15.80;74.80;;;;;;4917032;29;20453;-73
2022/09/26 09:39:52;;;;;;;0.70;0.60;;;15.30;74.40;;;;;;4916777;29;20484;-73
2022/09/26 09:42:25;;;;;;;0.70;0.70;;;15.40;75.40;;;;;;4917003;29;20465;-73
2022/09/26 09:44:58;;;;;;;0.70;0.70;;;15.30;75.40;;;;;;4917088;29;20469;-73
2022/09/26 09:47:27;;;;;;;0.70;0.70;;;15.40;75.40;;;;;;4916985;29;20470;-73
2022/09/26 09:49:55;;;;;;;0.60;0.60;;;15.50;74.00;;;;;;4920273;29;20457;-73
2022/09/26 09:52:38;;;;;;;0.60;0.60;;;15.60;76.00;;;;;;4920591;29;20465;-73
2022/09/26 09:55:18;;;;;;;0.70;0.70;;;15.80;74.10;;;;;;4920649;29;20456;-73
2022/09/26 09:58:04;;;;;;;0.60;0.60;;;16.00;73.10;;;;;;4920307;29;20808;-73
2022/09/26 10:00:35;;;;;;;0.60;0.60;;;15.90;72.40;;;;;;4920151;29;20842;-73
2022/09/26 10:03:10;;;;;;;0.70;0.60;;;15.90;69.70;;;;;;4920573;29;20793;-73
2022/09/26 10:05:40;;;;;;;0.70;0.60;;;15.80;70.10;;;;;;4920377;29;20472;-73
2022/09/26 10:08:13;;;;;;;0.80;0.70;;;15.80;69.20;;;;;;4920701;29;20509;-72
2022/09/26 10:10:46;;;;;;;0.70;0.60;;;15.90;70.10;;;;;;4920456;29;20524;-73
2022/09/26 10:13:16;;;;;;;0.60;0.50;;;15.70;71.40;;;;;;4920292;29;20504;-73
2022/09/26 10:15:53;;;;;;;0.60;0.60;;;15.90;73.10;;;;;;4920064;29;20541;-73
2022/09/26 10:18:20;;;;;;;0.70;0.70;;;15.90;71.10;;;;;;4920249;29;20444;-73
2022/09/26 10:20:52;;;;;;;0.70;0.70;;;15.90;71.70;;;;;;4920117;29;20477;-73
2022/09/26 10:23:23;;;;;;;0.70;0.67;;;16.20;70.50;;;;;;4919845;29;20884;-73
2022/09/26 10:25:52;;;;;;;1.27;0.60;;;16.00;70.40;;;;;;4920100;29;20477;-74
2022/09/26 10:28:26;;;;;;;0.60;0.60;;;15.80;69.00;;;;;;4920055;29;20463;-74
2022/09/26 10:30:57;;;;;;;0.67;0.67;;;15.50;70.90;;;;;;4919948;29;20508;-73
2022/09/26 10:33:29;;;;;;;0.60;0.60;;;15.60;71.80;;;;;;4920065;29;20413;-74
2022/09/26 10:36:03;;;;;;;0.70;0.60;;;15.80;72.50;;;;;;4919958;29;20445;-74
2022/09/26 10:38:30;;;;;;;0.60;0.60;;;16.10;70.70;;;;;;4919871;29;20440;-74
2022/09/26 10:40:58;;;;;;;0.70;0.60;;;16.10;69.10;;;;;;4919773;29;20525;-74
2022/09/26 10:43:29;;;;;;;0.60;0.60;;;16.20;67.70;;;;;;4920033;29;20449;-73
2022/09/26 10:46:02;;;;;;;0.60;0.50;;;16.30;67.80;;;;;;4919847;29;20488;-74
2022/09/26 10:48:42;;;;;;;0.60;0.60;;;16.50;67.90;;;;;;4919757;29;20438;-73
2022/09/26 10:51:10;;;;;;;0.70;0.60;;;16.60;65.10;;;;;;4919591;29;20481;-70
2022/09/26 10:53:40;;;;;;;0.60;0.50;;;16.50;65.80;;;;;;4919267;29;20874;-71
2022/09/26 10:56:11;;;;;;;0.60;0.60;;;16.50;65.40;;;;;;4919667;29;20461;-71
2022/09/26 10:58:43;;;;;;;0.80;0.67;;;16.30;63.00;;;;;;4919579;29;20493;-71
2022/09/26 11:01:19;;;;;;;0.67;0.60;;;16.30;63.90;;;;;;4918328;29;20871;-72
2022/09/26 11:03:47;;;;;;;0.60;0.50;;;16.50;66.60;;;;;;4920416;29;20456;-73
2022/09/26 11:06:29;;;;;;;0.60;0.50;;;16.80;66.00;;;;;;4919711;29;20520;-73
2022/09/26 11:09:01;;;;;;;0.70;0.60;;;16.90;62.30;;;;;;4919887;29;20448;-72
2022/09/26 11:11:32;;;;;;;1.23;0.70;;;16.70;64.10;;;;;;4919963;29;20474;-72
2022/09/26 11:14:06;;;;;;;0.60;0.50;;;16.60;64.60;;;;;;4920178;29;20438;-72
2022/09/26 11:16:54;;;;;;;0.70;0.60;;;16.60;66.50;;;;;;4919543;29;20489;-73
2022/09/26 11:19:33;;;;;;;0.70;0.60;;;16.70;63.20;;;;;;4916762;29;20479;-72
2022/09/26 11:22:06;;;;;;;0.60;0.57;;;16.30;63.00;;;;;;4919799;29;20453;-72
2022/09/26 11:24:41;;;;;;;0.60;0.60;;;16.20;63.50;;;;;;4919907;29;20437;-73
2022/09/26 11:27:19;;;;;;;0.70;0.67;;;16.10;65.10;;;;;;4919415;29;20567;-73
2022/09/26 11:29:54;;;;;;;0.70;0.70;;;15.90;66.80;;;;;;4918907;29;20952;-72
2022/09/26 11:32:28;;;;;;;0.70;0.70;;;15.70;66.80;;;;;;4919895;29;20484;-73
2022/09/26 11:35:01;;;;;;;0.70;0.60;;;15.30;68.50;;;;;;4919386;29;20444;-72
2022/09/26 11:38:04;;;;;;;0.60;0.60;;;15.00;69.20;;;;;;4919257;29;20926;-72
2022/09/26 11:40:50;;;;;;;0.90;0.90;;;15.10;70.20;;;;;;4919265;29;20445;-71
2022/09/26 11:43:33;;;;;;;1.00;0.70;;;15.50;70.00;;;;;;4919613;29;20445;-72
2022/09/26 11:46:20;;;;;;;0.60;0.50;;;15.90;68.10;;;;;;4918899;29;20571;-73
2022/09/26 11:49:02;;;;;;;0.60;0.60;;;16.20;66.70;;;;;;4919274;29;20442;-73
2022/09/26 11:51:45;;;;;;;1.63;0.80;;;16.60;66.50;;;;;;4919352;29;20469;-73
2022/09/26 11:54:34;;;;;;;0.60;0.60;;;16.80;65.00;;;;;;4919837;29;20441;-73
2022/09/26 11:57:13;;;;;;;0.60;0.50;;;16.70;64.60;;;;;;4918612;29;20918;-73
2022/09/26 12:00:08;;;;;;;0.60;0.57;;;16.70;63.90;;;;;;4918831;29;20497;-73
2022/09/26 12:02:50;;;;;;;0.70;0.70;;;16.40;64.50;;;;;;4915262;29;20552;-73
2022/09/26 12:05:24;;;;;;;0.60;0.50;;;16.20;65.20;;;;;;4919583;29;20531;-73
2022/09/26 12:08:03;;;;;;;0.70;0.60;;;16.20;64.70;;;;;;4918979;29;20441;-73
2022/09/26 12:10:41;;;;;;;0.70;0.60;;;16.30;63.10;;;;;;4918620;29;20924;-72
2022/09/26 12:13:20;;;;;;;0.60;0.60;;;16.40;64.60;;;;;;4918538;29;20449;-73
2022/09/26 12:15:56;;;;;;;0.60;0.50;;;16.60;64.30;;;;;;4918494;29;20919;-73
2022/09/26 12:18:34;;;;;;;0.60;0.50;;;17.00;63.90;;;;;;4919414;29;20433;-73
2022/09/26 12:21:16;;;;;;;0.93;0.70;;;17.50;62.30;;;;;;4919202;29;20491;-73
2022/09/26 12:23:49;;;;;;;0.60;0.50;;;17.90;62.50;;;;;;4919154;29;20800;-73
2022/09/26 12:26:23;;;;;;;1.27;0.60;;;18.10;58.80;;;;;;4918846;29;20477;-73
2022/09/26 12:29:10;;;;;;;0.60;0.50;;;18.00;61.00;;;;;;4918459;29;20936;-73
2022/09/26 12:31:49;;;;;;;0.60;0.50;;;18.20;59.40;;;;;;4918620;29;20484;-73
2022/09/26 12:34:36;;;;;;;0.80;0.60;;;18.20;58.70;;;;;;4918210;29;20461;-73
2022/09/26 12:37:25;;;;;;;0.67;0.60;;;17.90;59.70;;;;;;4918033;29;20524;-72
2022/09/26 12:40:08;;;;;;;0.70;0.60;;;17.30;59.20;;;;;;4918797;29;20437;-73
2022/09/26 12:42:49;;;;;;;0.60;0.50;;;17.00;60.90;;;;;;4918682;29;20800;-73
2022/09/26 12:45:40;;;;;;;0.60;0.60;;;16.60;60.50;;;;;;4918024;29;20953;-72
2022/09/26 12:48:19;;;;;;;0.70;0.53;;;16.40;62.40;;;;;;4918125;29;20440;-73
2022/09/26 12:50:55;;;;;;;0.60;0.50;;;16.50;62.80;;;;;;4918028;29;20497;-73
2022/09/26 12:53:34;;;;;;;0.60;0.50;;;16.40;64.60;;;;;;4917839;29;20965;-72
2022/09/26 12:56:06;;;;;;;0.60;0.60;;;16.50;63.30;;;;;;4918254;29;20433;-73
2022/09/26 12:58:42;;;;;;;0.60;0.50;;;16.50;63.80;;;;;;4918138;29;20446;-73
2022/09/26 13:01:22;;;;;;;0.80;0.60;;;16.50;63.20;;;;;;4917386;29;20488;-72
2022/09/26 13:04:22;;;;;;;0.70;0.60;;;16.00;64.90;;;;;;4917407;29;20444;-73
2022/09/26 13:07:08;;;;;;;0.60;0.60;;;15.60;62.90;;;;;;4913143;29;20484;-73
2022/09/26 13:09:50;;;;;;;0.67;0.60;;;15.40;63.30;;;;;;4917287;29;20444;-72
2022/09/26 13:12:35;;;;;;;0.60;0.60;;;15.20;64.20;;;;;;4916998;29;20989;-73
2022/09/26 13:15:14;;;;;;;0.60;0.50;;;14.90;65.80;;;;;;4917296;29;20453;-73
2022/09/26 13:17:45;;;;;;;0.80;0.60;;;14.70;65.80;;;;;;4917095;29;20901;-73
2022/09/26 13:20:17;;;;;;;0.70;0.50;;;14.60;67.10;;;;;;4917265;29;20451;-73
2022/09/26 13:22:49;;;;;;;0.60;0.50;;;14.70;66.90;;;;;;4918124;29;20483;-73
2022/09/26 13:25:21;;;;;;;1.17;0.50;;;14.70;65.70;;;;;;4923488;29;20859;-73
2022/09/26 13:27:55;;;;;;;0.60;0.50;;;14.60;67.60;;;;;;4923388;29;20473;-72
2022/09/26 13:30:25;;;;;;;0.60;0.50;;;14.70;67.60;;;;;;4923432;29;20444;-72
2022/09/26 13:33:00;;;;;;;0.60;0.50;;;14.70;66.70;;;;;;4923848;29;20438;-73
2022/09/26 13:35:28;;;;;;;0.60;0.50;;;14.90;67.20;;;;;;4924219;29;20781;-73
2022/09/26 13:38:13;;;;;;;0.60;0.50;;;15.10;66.70;;;;;;4924115;29;20456;-72
2022/09/26 13:40:48;;;;;;;0.60;0.47;;;15.80;65.90;;;;;;4924806;29;20792;-73
2022/09/26 13:43:24;;;;;;;1.53;0.83;;;16.60;63.00;;;;;;4924028;29;20447;-73
2022/09/26 13:46:02;;;;;;;0.60;0.50;;;17.20;60.80;;;;;;4923853;29;20429;-73
2022/09/26 13:48:45;;;;;;;0.80;0.60;;;17.50;61.00;;;;;;4924349;29;20441;-72
2022/09/26 13:51:21;;;;;;;0.80;0.60;;;17.90;60.30;;;;;;4924663;29;20484;-73
2022/09/26 13:53:57;;;;;;;0.60;0.50;;;18.60;59.30;;;;;;4923832;29;20811;-73
2022/09/26 13:56:46;;;;;;;0.60;0.53;;;19.30;57.00;;;;;;4924932;29;20464;-73
2022/09/26 13:59:34;;;;;;;0.60;0.50;;;19.80;55.10;;;;;;4921375;29;20460;-73
2022/09/26 14:02:23;;;;;;;0.67;0.53;;;20.50;54.60;;;;;;4924083;29;20567;-74
2022/09/26 14:04:50;;;;;;;0.60;0.50;;;21.10;51.80;;;;;;4923821;29;20878;-74
2022/09/26 14:10:18;;;;;;;0.60;0.50;;;22.40;50.60;;;;;;4923659;29;20416;-74
2022/09/26 14:13:17;;;;;;;0.60;0.50;;;22.30;51.00;;;;;;4924076;29;20487;-74
2022/09/26 14:15:59;;;;;;;1.80;0.60;;;21.80;52.40;;;;;;4922545;29;20456;-74
2022/09/26 14:18:52;;;;;;;0.60;0.50;;;22.00;52.30;;;;;;4922771;29;20444;-74
2022/09/26 14:21:34;;;;;;;0.60;0.60;;;21.70;51.90;;;;;;4922952;29;20543;-73
2022/09/26 14:24:28;;;;;;;0.60;0.50;;;20.30;54.80;;;;;;4923024;29;20488;-73
2022/09/26 14:27:04;;;;;;;0.60;0.50;;;19.60;55.70;;;;;;4922863;29;20865;-73
2022/09/26 14:29:43;;;;;;;0.60;0.60;;;18.90;57.90;;;;;;4922895;29;20443;-73
2022/09/26 14:32:16;;;;;;;0.60;0.50;;;18.50;58.70;;;;;;4922957;29;20519;-73
2022/09/26 14:34:44;;;;;;;0.60;0.50;;;18.10;59.70;;;;;;4921719;29;20456;-74
2022/09/26 14:37:38;;;;;;;0.60;0.53;;;17.60;60.40;;;;;;4919620;29;20945;-73
2022/09/26 14:40:22;;;;;;;0.60;0.50;;;17.30;62.70;;;;;;4919886;29;20437;-73
2022/09/26 14:42:54;;;;;;;0.80;0.60;;;16.70;63.20;;;;;;4919557;29;20517;-73
2022/09/26 14:45:24;;;;;;;0.60;0.60;;;16.50;63.90;;;;;;4919782;29;20437;-73
2022/09/26 14:48:00;;;;;;;0.60;0.50;;;16.40;65.00;;;;;;4919706;29;20476;-73
2022/09/26 14:50:31;;;;;;;0.70;0.50;;;16.30;65.90;;;;;;4919615;29;20532;-73
2022/09/26 14:53:01;;;;;;;0.70;0.60;;;16.40;65.40;;;;;;4919408;29;20991;-73
2022/09/26 14:55:30;;;;;;;0.60;0.50;;;16.10;65.00;;;;;;4919569;29;20453;-73
2022/09/26 14:58:28;;;;;;;0.70;0.60;;;15.80;65.60;;;;;;4919586;29;20448;-73
2022/09/26 15:00:55;;;;;;;0.60;0.60;;;15.70;67.20;;;;;;4919262;29;20901;-73
2022/09/26 15:03:23;;;;;;;0.60;0.60;;;15.60;66.40;;;;;;4919145;29;20824;-73
2022/09/26 15:05:50;;;;;;;0.70;0.60;;;15.50;67.00;;;;;;4919379;29;20448;-73
2022/09/26 15:08:25;;;;;;;0.60;0.60;;;15.40;67.70;;;;;;4919290;29;20488;-72
2022/09/26 15:10:53;;;;;;;0.70;0.60;;;15.30;68.20;;;;;;4919286;29;20480;-73
2022/09/26 15:13:31;;;;;;;0.60;0.60;;;15.40;68.20;;;;;;4918934;29;20540;-73
2022/09/26 15:16:18;;;;;;;0.80;0.60;;;15.30;67.10;;;;;;4920155;29;20917;-73
2022/09/26 15:18:49;;;;;;;0.60;0.50;;;15.30;67.70;;;;;;4919228;29;20437;-73
2022/09/26 15:21:25;;;;;;;0.60;0.60;;;15.40;67.30;;;;;;4919067;29;20468;-72
2022/09/26 15:23:53;;;;;;;0.60;0.60;;;15.50;66.60;;;;;;4919134;29;20441;-72
2022/09/26 15:26:24;;;;;;;0.60;0.50;;;15.50;66.40;;;;;;4918971;29;20457;-73
2022/09/26 15:28:55;;;;;;;0.60;0.50;;;15.40;65.20;;;;;;4919053;29;20500;-73
2022/09/26 15:31:24;;;;;;;0.60;0.50;;;15.20;65.80;;;;;;4918658;29;21007;-72
2022/09/26 15:33:56;;;;;;;0.60;0.50;;;15.00;66.30;;;;;;4919097;29;20457;-73
2022/09/26 15:36:26;;;;;;;0.60;0.50;;;15.00;66.20;;;;;;4918909;29;20421;-73
2022/09/26 15:38:53;;;;;;;0.60;0.57;;;15.10;66.70;;;;;;4918854;29;20457;-73
2022/09/26 15:44:03;;;;;;;0.60;0.57;;;15.00;66.40;;;;;;4918268;29;20441;-73
2022/09/26 15:46:30;;;;;;;0.60;0.60;;;14.90;67.00;;;;;;4918062;29;20532;-74
2022/09/26 15:48:59;;;;;;;0.60;0.60;;;15.00;68.30;;;;;;4918592;29;20465;-73
2022/09/26 15:51:28;;;;;;;0.60;0.60;;;14.90;68.50;;;;;;4918454;29;20477;-72
2022/09/26 15:53:58;;;;;;;0.60;0.60;;;14.90;68.30;;;;;;4918269;29;20437;-72
2022/09/26 15:56:28;;;;;;;1.17;0.60;;;14.60;68.80;;;;;;4918476;29;20457;-73
2022/09/26 15:58:59;;;;;;;0.70;0.60;;;14.50;69.30;;;;;;4918604;29;20488;-73
2022/09/26 16:01:30;;;;;;;0.60;0.60;;;14.20;70.40;;;;;;4918130;29;20481;-72
2022/09/26 16:03:58;;;;;;;0.60;0.60;;;14.10;71.20;;;;;;4918404;29;20818;-72
2022/09/26 16:06:28;;;;;;;0.60;0.60;;;14.00;71.90;;;;;;4918339;29;20882;-73
2022/09/26 16:08:59;;;;;;;0.60;0.60;;;14.00;72.40;;;;;;4918256;29;20505;-71
2022/09/26 16:11:26;;;;;;;0.60;0.60;;;14.00;72.70;;;;;;4917902;29;20473;-72
2022/09/26 16:13:55;;;;;;;0.70;0.60;;;14.10;72.60;;;;;;4918182;29;20460;-73
2022/09/26 16:16:30;;;;;;;0.60;0.60;;;14.00;72.20;;;;;;4918149;29;20492;-72
2022/09/26 16:18:59;;;;;;;0.60;0.60;;;14.00;72.60;;;;;;4918151;29;20448;-72
2022/09/26 16:21:27;;;;;;;0.60;0.50;;;14.00;72.60;;;;;;4917945;29;20482;-73
2022/09/26 16:23:56;;;;;;;0.67;0.67;;;13.80;73.30;;;;;;4917926;29;20500;-72
2022/09/26 16:26:31;;;;;;;0.60;0.50;;;13.90;73.10;;;;;;4917879;29;20517;-73
2022/09/26 16:28:59;;;;;;;0.70;0.60;;;14.00;72.30;;;;;;4917909;29;20441;-72
2022/09/26 16:31:38;;;;;;;0.60;0.60;;;14.00;72.80;;;;;;4917678;29;20473;-72